createdAt,value
2018-09-10T00:02:17.362Z,3.30
2018-09-10T00:04:46.466Z,3.20
2018-09-10T00:07:15.842Z,3.17
2018-09-10T00:09:44.596Z,2.87
2018-09-10T00:12:13.717Z,3.20
2018-09-10T00:14:42.517Z,3.20
2018-09-10T00:17:17.656Z,3.80
2018-09-10T00:19:46.771Z,3.77
2018-09-10T00:22:16.142Z,3.40
2018-09-10T00:24:45.657Z,3.40
2018-09-10T00:27:14.457Z,3.67
2018-09-10T00:29:43.275Z,2.90
2018-09-10T00:32:12.007Z,3.70
2018-09-10T00:34:42.174Z,3.10
2018-09-10T00:37:11.001Z,3.80
2018-09-10T00:39:39.766Z,3.50
2018-09-10T00:42:08.515Z,3.63
2018-09-10T00:44:37.579Z,3.50
2018-09-10T00:47:06.363Z,3.43
2018-09-10T00:49:35.525Z,4.07
2018-09-10T00:52:04.260Z,3.40
2018-09-10T00:54:33.361Z,3.47
2018-09-10T00:57:02.422Z,3.70
2018-09-10T00:59:31.290Z,3.60
2018-09-10T01:02:00.309Z,3.20
2018-09-10T01:04:29.268Z,3.57
2018-09-10T01:06:58.253Z,3.87
2018-09-10T01:09:27.068Z,2.93
2018-09-10T01:11:56.384Z,3.57
2018-09-10T01:14:25.132Z,3.60
2018-09-10T01:16:54.206Z,3.20
2018-09-10T01:19:23.010Z,4.20
2018-09-10T01:21:51.767Z,4.00
2018-09-10T01:24:20.971Z,4.80
2018-09-10T01:26:49.960Z,4.00
2018-09-10T01:29:19.074Z,4.57
2018-09-10T01:31:48.339Z,3.90
2018-09-10T01:34:22.555Z,4.40
2018-09-10T01:36:51.837Z,4.07
2018-09-10T01:39:20.865Z,3.93
2018-09-10T01:41:49.663Z,3.73
2018-09-10T01:44:18.710Z,3.60
2018-09-10T01:46:47.638Z,4.30
2018-09-10T01:49:16.440Z,4.60
2018-09-10T01:51:45.188Z,5.00
2018-09-10T01:54:13.994Z,4.33
2018-09-10T01:56:43.055Z,4.60
2018-09-10T01:59:11.867Z,4.00
2018-09-10T02:01:41.227Z,4.30
2018-09-10T02:04:10.196Z,3.50
2018-09-10T02:06:39.425Z,4.50
2018-09-10T02:09:09.574Z,3.90
2018-09-10T02:11:38.717Z,4.27
2018-09-10T02:14:07.752Z,4.13
2018-09-10T02:16:36.577Z,3.70
2018-09-10T02:19:06.291Z,4.27
2018-09-10T02:21:36.086Z,4.83
2018-09-10T02:24:05.136Z,4.50
2018-09-10T02:26:34.141Z,4.77
2018-09-10T02:29:03.397Z,5.10
2018-09-10T02:31:32.534Z,5.53
2018-09-10T02:34:01.338Z,4.20
2018-09-10T02:36:30.310Z,4.73
2018-09-10T02:38:59.058Z,4.60
2018-09-10T02:41:27.816Z,5.03
2018-09-10T02:43:57.114Z,5.40
2018-09-10T02:46:26.614Z,4.70
2018-09-10T02:48:56.347Z,4.47
2018-09-10T02:51:26.290Z,4.70
2018-09-10T02:53:56.192Z,4.97
2018-09-10T02:56:25.913Z,5.27
2018-09-10T02:58:55.787Z,5.70
2018-09-10T03:01:25.641Z,5.50
2018-09-10T03:03:55.385Z,5.40
2018-09-10T03:06:24.402Z,4.70
2018-09-10T03:08:53.675Z,5.87
2018-09-10T03:11:22.436Z,4.90
2018-09-10T03:13:51.156Z,5.67
2018-09-10T03:16:19.905Z,4.83
2018-09-10T03:18:49.181Z,6.27
2018-09-10T03:21:18.334Z,5.43
2018-09-10T03:23:47.927Z,5.80
2018-09-10T03:26:16.737Z,5.00
2018-09-10T03:28:46.244Z,6.20
2018-09-10T03:31:16.003Z,4.90
2018-09-10T03:33:44.828Z,7.00
2018-09-10T03:36:13.534Z,6.70
2018-09-10T03:38:42.329Z,5.50
2018-09-10T03:41:11.370Z,5.97
2018-09-10T03:43:40.084Z,5.20
2018-09-10T03:46:08.962Z,5.70
2018-09-10T03:48:38.291Z,6.90
2018-09-10T03:51:07.034Z,5.90
2018-09-10T03:53:36.291Z,5.60
2018-09-10T03:56:05.056Z,6.47
2018-09-10T03:58:33.812Z,6.20
2018-09-10T04:01:03.105Z,6.53
2018-09-10T04:03:32.078Z,5.93
2018-09-10T04:06:01.830Z,5.93
2018-09-10T04:08:30.857Z,6.50
2018-09-10T04:10:59.955Z,6.80
2018-09-10T04:13:29.110Z,5.70
2018-09-10T04:15:57.918Z,7.03
2018-09-10T04:18:26.988Z,7.10
2018-09-10T04:20:55.979Z,7.50
2018-09-10T04:23:24.702Z,8.03
2018-09-10T04:25:53.596Z,7.50
2018-09-10T04:28:22.368Z,6.97
2018-09-10T04:30:51.155Z,7.10
2018-09-10T04:33:20.266Z,6.77
2018-09-10T04:35:49.388Z,6.93
2018-09-10T04:38:19.193Z,7.20
2018-09-10T04:40:48.235Z,6.73
2018-09-10T04:43:17.604Z,8.30
2018-09-10T04:45:46.371Z,8.27
2018-09-10T04:48:15.131Z,7.43
2018-09-10T04:50:44.143Z,8.20
2018-09-10T04:53:14.007Z,8.37
2018-09-10T04:55:42.756Z,8.50
2018-09-10T04:58:11.765Z,8.93
2018-09-10T05:00:40.606Z,8.00
2018-09-10T05:03:09.738Z,8.40
2018-09-10T05:05:38.560Z,8.53
2018-09-10T05:08:07.720Z,8.83
2018-09-10T05:10:36.524Z,8.50
2018-09-10T05:13:05.301Z,8.17
2018-09-10T05:15:34.572Z,8.20
2018-09-10T05:18:03.802Z,9.70
2018-09-10T05:20:33.270Z,7.90
2018-09-10T05:23:02.412Z,8.97
2018-09-10T05:25:31.216Z,8.63
2018-09-10T05:28:00.367Z,8.43
2018-09-10T05:30:29.382Z,9.30
2018-09-10T05:32:58.197Z,8.13
2018-09-10T05:35:27.086Z,8.83
2018-09-10T05:37:56.666Z,9.00
2018-09-10T05:40:25.590Z,9.27
2018-09-10T05:42:54.747Z,8.77
2018-09-10T05:45:23.645Z,7.97
2018-09-10T05:47:52.883Z,9.80
2018-09-10T05:50:22.041Z,8.60
2018-09-10T05:52:51.223Z,9.07
2018-09-10T05:55:21.368Z,9.03
2018-09-10T05:57:50.726Z,10.60
2018-09-10T06:00:19.868Z,9.00
2018-09-10T06:02:49.108Z,7.70
2018-09-10T06:05:18.126Z,9.37
2018-09-10T06:07:46.919Z,8.50
2018-09-10T06:10:15.976Z,8.67
2018-09-10T06:12:45.339Z,9.40
2018-09-10T06:15:14.409Z,9.10
2018-09-10T06:17:43.274Z,8.87
2018-09-10T06:20:12.264Z,9.53
2018-09-10T06:22:41.471Z,8.90
2018-09-10T06:25:11.479Z,9.53
2018-09-10T06:27:40.930Z,9.77
2018-09-10T06:30:09.924Z,9.67
2018-09-10T06:32:39.323Z,8.37
2018-09-10T06:35:08.358Z,9.87
2018-09-10T06:37:37.781Z,9.27
2018-09-10T06:40:07.615Z,10.10
2018-09-10T06:42:37.066Z,8.40
2018-09-10T06:45:05.966Z,10.50
2018-09-10T06:47:35.053Z,9.93
2018-09-10T06:50:04.129Z,10.27
2018-09-10T06:52:33.879Z,9.60
2018-09-10T06:55:03.325Z,9.80
2018-09-10T06:57:32.925Z,7.23
2018-09-10T07:00:02.256Z,6.93
2018-09-10T07:02:31.364Z,7.20
2018-09-10T07:05:00.729Z,8.33
2018-09-10T07:07:29.703Z,7.07
2018-09-10T07:09:59.187Z,6.57
2018-09-10T07:12:28.277Z,7.00
2018-09-10T07:14:57.887Z,5.60
2018-09-10T07:17:26.618Z,5.50
2018-09-10T07:19:55.929Z,8.13
2018-09-10T07:22:24.747Z,6.10
2018-09-10T07:24:53.758Z,5.37
2018-09-10T07:27:22.521Z,6.20
2018-09-10T07:29:51.579Z,4.90
2018-09-10T07:32:20.643Z,5.37
2018-09-10T07:34:49.686Z,4.67
2018-09-10T07:37:18.657Z,5.67
2018-09-10T07:39:47.711Z,4.90
2018-09-10T07:42:16.480Z,4.43
2018-09-10T07:44:45.168Z,5.37
2018-09-10T07:47:13.959Z,5.07
2018-09-10T07:49:43.078Z,4.50
2018-09-10T07:52:11.795Z,4.37
2018-09-10T07:54:40.947Z,5.23
2018-09-10T07:57:09.944Z,5.90
2018-09-10T07:59:38.891Z,4.70
2018-09-10T08:02:07.968Z,5.93
2018-09-10T08:04:36.724Z,6.00
2018-09-10T08:07:05.515Z,6.20
2018-09-10T08:09:34.306Z,5.90
2018-09-10T08:12:03.425Z,5.80
2018-09-10T08:14:32.141Z,5.50
2018-09-10T08:17:01.488Z,7.63
2018-09-10T08:19:30.407Z,5.23
2018-09-10T08:21:59.152Z,5.67
2018-09-10T08:24:28.289Z,5.60
2018-09-10T08:26:57.871Z,5.77
2018-09-10T08:29:26.861Z,4.70
2018-09-10T08:31:56.194Z,5.93
2018-09-10T08:34:25.259Z,5.40
2018-09-10T08:36:54.624Z,5.57
2018-09-10T08:39:23.621Z,5.00
2018-09-10T08:41:52.530Z,5.10
2018-09-10T08:44:24.100Z,4.63
2018-09-10T08:46:52.825Z,4.57
2018-09-10T08:49:21.595Z,4.00
2018-09-10T08:51:50.649Z,5.57
2018-09-10T08:54:19.424Z,5.20
2018-09-10T08:56:48.581Z,4.20
2018-09-10T08:59:17.629Z,4.50
2018-09-10T09:01:46.776Z,4.10
2018-09-10T09:04:15.533Z,5.10
2018-09-10T09:06:44.611Z,5.40
2018-09-10T09:09:13.642Z,5.60
2018-09-10T09:11:42.666Z,6.00
2018-09-10T09:14:11.474Z,3.93
2018-09-10T09:16:40.488Z,4.97
2018-09-10T09:19:09.254Z,5.87
2018-09-10T09:21:38.037Z,6.70
2018-09-10T09:24:07.148Z,5.00
2018-09-10T09:26:35.900Z,5.53
2018-09-10T09:29:04.872Z,5.03
2018-09-10T09:31:34.154Z,5.40
2018-09-10T09:34:02.918Z,5.93
2018-09-10T09:36:36.853Z,4.73
2018-09-10T09:39:12.705Z,4.93
2018-09-10T09:41:46.532Z,5.30
2018-09-10T09:44:20.711Z,4.77
2018-09-10T09:46:49.700Z,5.10
2018-09-10T09:49:18.499Z,3.30
2018-09-10T09:51:47.887Z,3.50
2018-09-10T09:54:17.424Z,3.20
2018-09-10T09:56:46.557Z,2.57
2018-09-10T09:59:16.146Z,2.80
2018-09-10T10:01:51.939Z,2.70
2018-09-10T10:04:21.009Z,3.57
2018-09-10T10:06:50.074Z,2.73
2018-09-10T10:09:18.785Z,2.63
2018-09-10T10:11:47.833Z,3.67
2018-09-10T10:14:16.555Z,2.73
2018-09-10T10:16:51.835Z,3.93
2018-09-10T10:19:20.553Z,2.50
2018-09-10T10:21:49.303Z,2.57
2018-09-10T10:24:18.153Z,3.00
2018-09-10T10:26:46.866Z,3.03
2018-09-10T10:29:15.922Z,2.80
2018-09-10T10:31:44.736Z,3.30
2018-09-10T10:34:13.808Z,3.37
2018-09-10T10:36:42.894Z,2.90
2018-09-10T10:39:12.010Z,2.60
2018-09-10T10:41:40.756Z,2.23
2018-09-10T10:44:09.895Z,3.73
2018-09-10T10:46:39.012Z,2.80
2018-09-10T10:49:08.131Z,2.70
2018-09-10T10:51:36.857Z,2.67
2018-09-10T10:54:05.980Z,2.10
2018-09-10T10:56:34.721Z,2.00
2018-09-10T10:59:03.741Z,2.50
2018-09-10T11:01:32.692Z,1.47
2018-09-10T11:04:01.769Z,2.17
2018-09-10T11:06:30.486Z,2.50
2018-09-10T11:08:59.595Z,2.10
2018-09-10T11:11:28.360Z,1.97
2018-09-10T11:13:57.389Z,2.40
2018-09-10T11:16:26.395Z,1.43
2018-09-10T11:18:55.143Z,2.00
2018-09-10T11:21:24.784Z,2.30
2018-09-10T11:23:54.149Z,1.67
2018-09-10T11:26:22.880Z,1.73
2018-09-10T11:28:51.684Z,2.73
2018-09-10T11:31:20.436Z,2.27
2018-09-10T11:33:49.547Z,1.60
2018-09-10T11:36:18.312Z,2.10
2018-09-10T11:38:47.105Z,2.30
2018-09-10T11:41:16.125Z,1.77
2018-09-10T11:43:44.926Z,1.80
2018-09-10T11:46:14.298Z,1.83
2018-09-10T11:48:43.012Z,1.30
2018-09-10T11:51:12.061Z,2.17
2018-09-10T11:53:41.070Z,2.20
2018-09-10T11:56:10.438Z,2.30
2018-09-10T11:58:39.202Z,2.50
2018-09-10T12:01:08.365Z,2.10
2018-09-10T12:03:37.074Z,3.10
2018-09-10T12:06:05.781Z,2.37
2018-09-10T12:08:35.098Z,1.83
2018-09-10T12:11:04.166Z,2.30
2018-09-10T12:13:32.974Z,1.73
2018-09-10T12:16:02.265Z,1.63
2018-09-10T12:18:31.032Z,1.50
2018-09-10T12:21:00.166Z,1.90
2018-09-10T12:23:29.212Z,1.53
2018-09-10T12:25:58.394Z,1.90
2018-09-10T12:28:27.168Z,2.10
2018-09-10T12:30:56.288Z,1.80
2018-09-10T12:33:25.013Z,2.50
2018-09-10T12:35:54.204Z,2.00
2018-09-10T12:38:22.988Z,2.03
2018-09-10T12:40:52.079Z,2.33
2018-09-10T12:43:21.579Z,2.47
2018-09-10T12:45:50.903Z,1.90
2018-09-10T12:48:19.664Z,2.67
2018-09-10T12:50:48.412Z,2.03
2018-09-10T12:53:17.325Z,1.80
2018-09-10T12:55:46.290Z,2.03
2018-09-10T12:58:15.019Z,2.17
2018-09-10T13:00:43.888Z,2.00
2018-09-10T13:03:13.008Z,2.60
2018-09-10T13:05:41.800Z,1.60
2018-09-10T13:08:10.650Z,1.73
2018-09-10T13:10:39.589Z,1.43
2018-09-10T13:13:08.277Z,1.80
2018-09-10T13:15:38.046Z,1.60
2018-09-10T13:18:07.078Z,2.03
2018-09-10T13:20:35.913Z,1.77
2018-09-10T13:23:05.246Z,2.13
2018-09-10T13:25:34.070Z,2.13
2018-09-10T13:28:02.962Z,1.73
2018-09-10T13:30:32.007Z,1.43
2018-09-10T13:33:00.906Z,1.73
2018-09-10T13:35:32.515Z,2.07
2018-09-10T13:38:01.317Z,1.93
2018-09-10T13:40:30.248Z,1.30
2018-09-10T13:42:59.925Z,1.83
2018-09-10T13:45:28.678Z,1.67
2018-09-10T13:48:00.592Z,1.43
2018-09-10T13:50:29.905Z,1.50
2018-09-10T13:52:58.676Z,1.50
2018-09-10T13:55:27.550Z,1.63
2018-09-10T13:57:57.090Z,1.63
2018-09-10T14:00:25.901Z,1.43
2018-09-10T14:02:55.012Z,2.60
2018-09-10T14:05:23.788Z,1.07
2018-09-10T14:07:52.879Z,1.50
2018-09-10T14:10:21.935Z,2.00
2018-09-10T14:12:50.988Z,1.30
2018-09-10T14:15:21.672Z,1.20
2018-09-10T14:17:50.855Z,1.50
2018-09-10T14:20:20.327Z,1.90
2018-09-10T14:22:49.427Z,1.73
2018-09-10T14:25:18.320Z,2.20
2018-09-10T14:27:47.275Z,1.53
2018-09-10T14:30:16.001Z,1.97
2018-09-10T14:32:45.594Z,1.53
2018-09-10T14:35:14.671Z,1.73
2018-09-10T14:37:43.580Z,2.20
2018-09-10T14:40:12.380Z,1.90
2018-09-10T14:42:41.332Z,1.70
2018-09-10T14:45:10.846Z,1.70
2018-09-10T14:47:39.915Z,1.80
2018-09-10T14:50:09.079Z,1.40
2018-09-10T14:52:38.359Z,1.37
2018-09-10T14:55:07.384Z,1.40
2018-09-10T14:57:36.669Z,1.20
2018-09-10T15:00:06.090Z,2.10
2018-09-10T15:02:34.977Z,1.57
2018-09-10T15:05:04.001Z,1.20
2018-09-10T15:07:33.127Z,3.63
2018-09-10T15:10:01.885Z,1.77
2018-09-10T15:12:30.627Z,1.60
2018-09-10T15:14:59.673Z,1.43
2018-09-10T15:17:28.515Z,1.63
2018-09-10T15:19:57.337Z,1.57
2018-09-10T15:22:26.491Z,2.10
2018-09-10T15:24:55.637Z,1.90
2018-09-10T15:27:24.464Z,1.63
2018-09-10T15:29:53.438Z,1.53
2018-09-10T15:32:24.367Z,2.50
2018-09-10T15:34:53.128Z,2.10
2018-09-10T15:37:21.946Z,1.80
2018-09-10T15:39:50.945Z,1.50
2018-09-10T15:42:19.973Z,1.43
2018-09-10T15:44:49.270Z,1.60
2018-09-10T15:47:18.367Z,1.87
2018-09-10T15:49:47.934Z,2.23
2018-09-10T15:52:17.990Z,1.40
2018-09-10T15:54:47.561Z,1.97
2018-09-10T15:57:16.387Z,1.77
2018-09-10T15:59:45.475Z,2.03
2018-09-10T16:02:14.646Z,1.50
2018-09-10T16:04:43.672Z,1.60
2018-09-10T16:07:12.568Z,2.00
2018-09-10T16:09:41.735Z,2.47
2018-09-10T16:12:10.491Z,1.80
2018-09-10T16:14:39.247Z,1.70
2018-09-10T16:17:08.480Z,1.67
2018-09-10T16:19:37.601Z,1.90
2018-09-10T16:22:06.421Z,2.10
2018-09-10T16:24:36.032Z,1.80
2018-09-10T16:27:04.908Z,2.30
2018-09-10T16:29:33.877Z,2.33
2018-09-10T16:32:02.710Z,1.50
2018-09-10T16:34:31.474Z,1.67
2018-09-10T16:37:00.477Z,1.53
2018-09-10T16:39:29.920Z,2.40
2018-09-10T16:41:58.748Z,2.03
2018-09-10T16:44:27.624Z,2.33
2018-09-10T16:46:56.443Z,2.70
2018-09-10T16:49:25.212Z,2.23
2018-09-10T16:51:54.831Z,1.70
2018-09-10T16:54:23.645Z,1.87
2018-09-10T16:56:53.027Z,1.73
2018-09-10T16:59:21.872Z,2.43
2018-09-10T17:01:51.610Z,1.80
2018-09-10T17:04:21.070Z,2.40
2018-09-10T17:06:50.822Z,2.40
2018-09-10T17:09:20.217Z,1.80
2018-09-10T17:11:49.023Z,2.27
2018-09-10T17:14:17.826Z,2.43
2018-09-10T17:16:46.947Z,2.27
2018-09-10T17:19:15.808Z,1.63
2018-09-10T17:21:44.568Z,1.83
2018-09-10T17:24:13.570Z,2.17
2018-09-10T17:26:42.403Z,2.20
2018-09-10T17:29:12.071Z,2.40
2018-09-10T17:31:41.049Z,2.20
2018-09-10T17:34:09.890Z,2.67
2018-09-10T17:36:39.014Z,1.60
2018-09-10T17:39:08.875Z,1.60
2018-09-10T17:41:44.759Z,1.67
2018-09-10T17:44:13.550Z,1.90
2018-09-10T17:46:42.327Z,1.80
2018-09-10T17:49:11.074Z,1.57
2018-09-10T17:51:39.866Z,1.47
2018-09-10T17:54:09.188Z,2.07
2018-09-10T17:56:38.303Z,2.17
2018-09-10T17:59:13.930Z,1.30
2018-09-10T18:01:42.932Z,1.70
2018-09-10T18:04:11.720Z,2.17
2018-09-10T18:06:40.455Z,2.03
2018-09-10T18:09:11.332Z,1.60
2018-09-10T18:11:40.902Z,1.93
2018-09-10T18:14:09.931Z,2.20
2018-09-10T18:16:39.283Z,1.83
2018-09-10T18:19:08.255Z,2.00
2018-09-10T18:21:37.007Z,1.80
2018-09-10T18:24:06.519Z,2.27
2018-09-10T18:26:35.715Z,2.30
2018-09-10T18:29:04.464Z,2.83
2018-09-10T18:31:33.211Z,2.60
2018-09-10T18:34:04.248Z,1.83
2018-09-10T18:36:35.929Z,2.30
2018-09-10T18:39:06.930Z,2.43
2018-09-10T18:41:35.634Z,2.47
2018-09-10T18:44:04.394Z,3.60
2018-09-10T18:46:33.179Z,2.27
2018-09-10T18:49:02.017Z,2.00
2018-09-10T18:51:31.276Z,2.30
2018-09-10T18:54:00.044Z,2.40
2018-09-10T18:56:29.505Z,2.60
2018-09-10T18:58:58.236Z,2.00
2018-09-10T19:01:27.486Z,2.17
2018-09-10T19:03:56.199Z,2.90
2018-09-10T19:06:25.422Z,3.30
2018-09-10T19:08:54.774Z,2.33
2018-09-10T19:11:23.809Z,2.03
2018-09-10T19:13:52.791Z,2.90
2018-09-10T19:16:21.957Z,2.40
2018-09-10T19:18:51.867Z,2.70
2018-09-10T19:21:20.947Z,2.77
2018-09-10T19:23:50.213Z,2.47
2018-09-10T19:26:19.087Z,2.60
2018-09-10T19:28:48.247Z,2.37
2018-09-10T19:31:17.593Z,2.03
2018-09-10T19:33:53.055Z,3.10
2018-09-10T19:36:22.132Z,2.93
2018-09-10T19:38:51.376Z,2.20
2018-09-10T19:41:20.121Z,2.67
2018-09-10T19:43:48.885Z,2.30
2018-09-10T19:46:17.805Z,2.30
2018-09-10T19:48:46.681Z,3.30
2018-09-10T19:51:15.851Z,2.50
2018-09-10T19:53:44.921Z,2.00
2018-09-10T19:56:13.695Z,2.40
2018-09-10T19:58:43.338Z,3.30
2018-09-10T20:01:12.429Z,2.53
2018-09-10T20:03:41.640Z,2.00
2018-09-10T20:06:10.791Z,2.23
2018-09-10T20:08:39.878Z,2.80
2018-09-10T20:11:09.088Z,3.00
2018-09-10T20:13:37.861Z,2.47
2018-09-10T20:16:06.765Z,2.40
2018-09-10T20:18:35.547Z,2.20
2018-09-10T20:21:04.484Z,3.37
2018-09-10T20:23:33.535Z,2.20
2018-09-10T20:26:02.638Z,1.93
2018-09-10T20:28:31.446Z,1.77
2018-09-10T20:31:00.427Z,2.63
2018-09-10T20:33:29.277Z,2.50
2018-09-10T20:35:58.072Z,2.20
2018-09-10T20:38:26.795Z,2.70
2018-09-10T20:40:55.649Z,2.60
2018-09-10T20:43:24.416Z,2.50
2018-09-10T20:45:53.503Z,2.40
2018-09-10T20:48:22.556Z,2.77
2018-09-10T20:50:51.310Z,2.20
2018-09-10T20:53:20.132Z,2.10
2018-09-10T20:55:49.294Z,2.20
2018-09-10T20:58:18.376Z,2.70
2018-09-10T21:00:47.551Z,1.80
2018-09-10T21:03:16.691Z,2.80
2018-09-10T21:05:45.905Z,1.93
2018-09-10T21:08:14.775Z,1.97
2018-09-10T21:10:44.014Z,2.50
2018-09-10T21:13:13.130Z,2.03
2018-09-10T21:15:42.185Z,2.60
2018-09-10T21:18:11.176Z,2.37
2018-09-10T21:20:40.667Z,2.03
2018-09-10T21:23:09.558Z,2.50
2018-09-10T21:25:38.518Z,2.67
2018-09-10T21:28:07.338Z,2.90
2018-09-10T21:30:36.307Z,3.77
2018-09-10T21:33:05.484Z,2.80
2018-09-10T21:35:34.271Z,2.03
2018-09-10T21:38:03.055Z,3.70
2018-09-10T21:40:32.036Z,2.90
2018-09-10T21:43:01.108Z,2.50
2018-09-10T21:45:30.475Z,3.00
2018-09-10T21:47:59.343Z,2.80
2018-09-10T21:50:35.504Z,2.97
2018-09-10T21:53:04.701Z,2.37
2018-09-10T21:55:33.537Z,2.57
2018-09-10T21:58:02.506Z,2.63
2018-09-10T22:00:31.293Z,2.83
2018-09-10T22:03:00.652Z,1.90
2018-09-10T22:05:29.744Z,2.47
2018-09-10T22:07:58.635Z,2.60
2018-09-10T22:10:27.804Z,3.00
2018-09-10T22:12:56.519Z,2.33
2018-09-10T22:15:25.656Z,2.30
2018-09-10T22:17:54.508Z,2.53
2018-09-10T22:20:23.327Z,2.53
2018-09-10T22:22:52.123Z,2.47
2018-09-10T22:25:21.159Z,2.57
2018-09-10T22:27:50.151Z,2.00
2018-09-10T22:30:18.947Z,3.17
2018-09-10T22:32:47.714Z,2.60
2018-09-10T22:35:16.851Z,2.40
2018-09-10T22:37:45.934Z,2.00
2018-09-10T22:40:14.710Z,2.63
2018-09-10T22:42:44.169Z,2.83
2018-09-10T22:45:13.246Z,2.50
2018-09-10T22:47:42.609Z,2.87
2018-09-10T22:50:11.704Z,2.57
2018-09-10T22:52:40.716Z,1.97
2018-09-10T22:55:09.518Z,2.10
2018-09-10T22:57:38.345Z,2.60
2018-09-10T23:00:08.175Z,1.87
2018-09-10T23:02:37.965Z,3.10
2018-09-10T23:05:06.930Z,3.27
2018-09-10T23:07:35.698Z,2.70
2018-09-10T23:10:05.699Z,2.50
2018-09-10T23:12:34.748Z,2.60
2018-09-10T23:15:03.543Z,2.30
2018-09-10T23:17:32.415Z,3.40
2018-09-10T23:20:01.521Z,2.53
2018-09-10T23:22:30.427Z,2.97
2018-09-10T23:24:59.834Z,2.67
2018-09-10T23:27:29.446Z,2.70
2018-09-10T23:29:58.224Z,2.83
2018-09-10T23:32:26.967Z,3.60
2018-09-10T23:34:55.982Z,2.60
2018-09-10T23:37:31.190Z,2.90
2018-09-10T23:40:00.263Z,3.40
2018-09-10T23:42:29.263Z,2.67
2018-09-10T23:44:58.905Z,3.33
2018-09-10T23:47:27.684Z,4.23
2018-09-10T23:49:59.398Z,4.63
2018-09-10T23:52:28.225Z,3.97
2018-09-10T23:54:57.571Z,3.83
2018-09-10T23:57:26.714Z,3.57
2018-09-10T23:59:55.504Z,3.97
